createdAt,value
2017-07-17T00:00:23.844Z,1021.51
2017-07-17T00:01:32.694Z,1021.49
2017-07-17T00:02:41.547Z,1021.51
2017-07-17T00:03:50.553Z,1021.4
2017-07-17T00:04:59.404Z,1021.4
2017-07-17T00:06:08.624Z,1021.41
2017-07-17T00:07:17.482Z,1021.39
2017-07-17T00:08:26.334Z,1021.43
2017-07-17T00:09:35.491Z,1021.42
2017-07-17T00:10:44.344Z,1021.37
2017-07-17T00:11:53.197Z,1021.44
2017-07-17T00:13:02.049Z,1021.45
2017-07-17T00:14:10.903Z,1021.45
2017-07-17T00:15:19.909Z,1021.48
2017-07-17T00:16:28.765Z,1021.45
2017-07-17T00:17:37.621Z,1021.44
2017-07-17T00:18:46.478Z,1021.47
2017-07-17T00:19:55.336Z,1021.44
2017-07-17T00:21:04.489Z,1021.44
2017-07-17T00:22:13.342Z,1021.39
2017-07-17T00:23:22.196Z,1021.43
2017-07-17T00:24:31.049Z,1021.46
2017-07-17T00:25:39.903Z,1021.41
2017-07-17T00:26:48.909Z,1021.44
2017-07-17T00:27:57.767Z,1021.43
2017-07-17T00:29:06.622Z,1021.42
2017-07-17T00:30:15.478Z,1021.44
2017-07-17T00:31:24.668Z,1021.46
2017-07-17T00:32:33.673Z,1021.48
2017-07-17T00:33:42.526Z,1021.51
2017-07-17T00:34:51.714Z,1021.47
2017-07-17T00:36:00.567Z,1021.48
2017-07-17T00:37:09.421Z,1021.5
2017-07-17T00:38:18.425Z,1021.45
2017-07-17T00:39:27.278Z,1021.47
2017-07-17T00:40:36.134Z,1021.45
2017-07-17T00:41:44.993Z,1021.49
2017-07-17T00:42:53.841Z,1021.5
2017-07-17T00:44:02.696Z,1021.53
2017-07-17T00:45:11.550Z,1021.5
2017-07-17T00:46:20.407Z,1021.57
2017-07-17T00:47:29.262Z,1021.58
2017-07-17T00:48:38.115Z,1021.61
2017-07-17T00:49:46.970Z,1021.57
2017-07-17T00:50:55.825Z,1021.58
2017-07-17T00:52:04.679Z,1021.59
2017-07-17T00:53:13.532Z,1021.62
2017-07-17T00:54:22.388Z,1021.6
2017-07-17T00:55:31.242Z,1021.63
2017-07-17T00:56:40.096Z,1021.63
2017-07-17T00:57:48.954Z,1021.65
2017-07-17T00:58:57.809Z,1021.65
2017-07-17T01:00:06.662Z,1021.64
2017-07-17T01:01:15.813Z,1021.62
2017-07-17T01:02:24.669Z,1021.6
2017-07-17T01:03:33.523Z,1021.56
2017-07-17T01:04:42.373Z,1021.56
2017-07-17T01:05:51.226Z,1021.55
2017-07-17T01:07:00.130Z,1021.56
2017-07-17T01:08:08.985Z,1021.56
2017-07-17T01:09:17.840Z,1021.62
2017-07-17T01:10:26.694Z,1021.59
2017-07-17T01:11:35.549Z,1021.58
2017-07-17T01:12:44.404Z,1021.6
2017-07-17T01:13:53.262Z,1021.61
2017-07-17T01:15:02.118Z,1021.6
2017-07-17T01:16:10.972Z,1021.62
2017-07-17T01:17:19.823Z,1021.64
2017-07-17T01:18:28.829Z,1021.63
2017-07-17T01:19:37.684Z,1021.6
2017-07-17T01:20:46.577Z,1021.62
2017-07-17T01:21:55.394Z,1021.58
2017-07-17T01:23:04.248Z,1021.59
2017-07-17T01:24:13.251Z,1021.6
2017-07-17T01:25:22.106Z,1021.58
2017-07-17T01:26:30.961Z,1021.57
2017-07-17T01:27:39.817Z,1021.59
2017-07-17T01:28:48.671Z,1021.53
2017-07-17T01:29:57.724Z,1021.54
2017-07-17T01:31:06.577Z,1021.58
2017-07-17T01:32:15.433Z,1021.53
2017-07-17T01:33:24.290Z,1021.56
2017-07-17T01:34:33.144Z,1021.53
2017-07-17T01:35:42.199Z,1021.56
2017-07-17T01:36:51.053Z,1021.57
2017-07-17T01:37:59.909Z,1021.53
2017-07-17T01:39:08.766Z,1021.57
2017-07-17T01:40:17.669Z,1021.56
2017-07-17T01:41:26.527Z,1021.59
2017-07-17T01:42:35.383Z,1021.61
2017-07-17T01:43:44.239Z,1021.61
2017-07-17T01:44:53.092Z,1021.58
2017-07-17T01:46:01.946Z,1021.59
2017-07-17T01:47:10.902Z,1021.59
2017-07-17T01:48:19.757Z,1021.64
2017-07-17T01:49:28.614Z,1021.59
2017-07-17T01:50:37.468Z,1021.57
2017-07-17T01:51:46.320Z,1021.54
2017-07-17T01:52:55.477Z,1021.55
2017-07-17T01:54:04.333Z,1021.5
2017-07-17T01:55:13.188Z,1021.55
2017-07-17T01:56:22.042Z,1021.54
2017-07-17T01:57:30.898Z,1021.54
2017-07-17T01:58:39.801Z,1021.57
2017-07-17T01:59:48.658Z,1021.54
2017-07-17T02:00:57.513Z,1021.55
2017-07-17T02:02:06.367Z,1021.54
2017-07-17T02:03:15.224Z,1021.58
2017-07-17T02:04:24.127Z,1021.6
2017-07-17T02:05:32.982Z,1021.61
2017-07-17T02:06:41.838Z,1021.59
2017-07-17T02:07:50.692Z,1021.6
2017-07-17T02:08:59.546Z,1021.62
2017-07-17T02:10:08.700Z,1021.59
2017-07-17T02:11:17.554Z,1021.59
2017-07-17T02:12:26.409Z,1021.64
2017-07-17T02:13:35.264Z,1021.66
2017-07-17T02:14:44.117Z,1021.65
2017-07-17T02:15:52.972Z,1021.66
2017-07-17T02:17:01.830Z,1021.7
2017-07-17T02:18:10.685Z,1021.68
2017-07-17T02:19:19.541Z,1021.69
2017-07-17T02:20:28.397Z,1021.7
2017-07-17T02:21:37.349Z,1021.68
2017-07-17T02:22:46.203Z,1021.68
2017-07-17T02:23:55.057Z,1021.67
2017-07-17T02:25:03.912Z,1021.65
2017-07-17T02:26:12.765Z,1021.65
2017-07-17T02:27:21.671Z,1021.69
2017-07-17T02:28:30.526Z,1021.67
2017-07-17T02:29:39.381Z,1021.64
2017-07-17T02:30:48.238Z,1021.63
2017-07-17T02:31:57.091Z,1021.62
2017-07-17T02:33:06.147Z,1021.63
2017-07-17T02:34:15.002Z,1021.63
2017-07-17T02:35:23.858Z,1021.62
2017-07-17T02:36:32.712Z,1021.61
2017-07-17T02:37:41.564Z,1021.66
2017-07-17T02:38:50.667Z,1021.73
2017-07-17T02:39:59.519Z,1021.72
2017-07-17T02:41:08.373Z,1021.73
2017-07-17T02:42:17.275Z,1021.69
2017-07-17T02:43:26.128Z,1021.73
2017-07-17T02:44:35.235Z,1021.74
2017-07-17T02:45:44.090Z,1021.74
2017-07-17T02:46:52.943Z,1021.72
2017-07-17T02:48:01.797Z,1021.76
2017-07-17T02:49:10.650Z,1021.74
2017-07-17T02:50:19.654Z,1021.67
2017-07-17T02:51:28.519Z,1021.66
2017-07-17T02:52:37.361Z,1021.67
2017-07-17T02:53:46.217Z,1021.69
2017-07-17T02:54:55.075Z,1021.68
2017-07-17T02:56:04.079Z,1021.68
2017-07-17T02:57:12.934Z,1021.67
2017-07-17T02:58:21.787Z,1021.69
2017-07-17T02:59:30.639Z,1021.68
2017-07-17T03:00:39.493Z,1021.66
2017-07-17T03:01:48.395Z,1021.64
2017-07-17T03:02:57.250Z,1021.66
2017-07-17T03:04:06.103Z,1021.66
2017-07-17T03:05:14.959Z,1021.65
2017-07-17T03:06:23.811Z,1021.68
2017-07-17T03:07:33.067Z,1021.65
2017-07-17T03:08:41.921Z,1021.64
2017-07-17T03:09:50.773Z,1021.62
2017-07-17T03:10:59.628Z,1021.64
2017-07-17T03:12:08.482Z,1021.71
2017-07-17T03:13:17.438Z,1021.71
2017-07-17T03:14:26.290Z,1021.7
2017-07-17T03:15:35.142Z,1021.7
2017-07-17T03:16:43.997Z,1021.71
2017-07-17T03:17:52.850Z,1021.7
2017-07-17T03:19:01.753Z,1021.74
2017-07-17T03:20:10.618Z,1021.72
2017-07-17T03:21:19.465Z,1021.73
2017-07-17T03:22:28.320Z,1021.76
2017-07-17T03:23:37.174Z,1021.73
2017-07-17T03:24:46.025Z,1021.73
2017-07-17T03:25:54.879Z,1021.75
2017-07-17T03:27:03.731Z,1021.76
2017-07-17T03:28:12.584Z,1021.76
2017-07-17T03:29:21.438Z,1021.77
2017-07-17T03:30:30.393Z,1021.81
2017-07-17T03:31:39.246Z,1021.8
2017-07-17T03:32:48.101Z,1021.79
2017-07-17T03:33:56.955Z,1021.82
2017-07-17T03:35:05.808Z,1021.78
2017-07-17T03:36:14.815Z,1021.78
2017-07-17T03:37:23.668Z,1021.76
2017-07-17T03:38:32.522Z,1021.82
2017-07-17T03:39:41.375Z,1021.79
2017-07-17T03:40:50.227Z,1021.82
2017-07-17T03:41:59.232Z,1021.82
2017-07-17T03:43:08.082Z,1021.83
2017-07-17T03:44:16.934Z,1021.84
2017-07-17T03:45:25.788Z,1021.87
2017-07-17T03:46:34.643Z,1021.83
2017-07-17T03:47:43.598Z,1021.83
2017-07-17T03:48:52.451Z,1021.86
2017-07-17T03:50:01.302Z,1021.85
2017-07-17T03:51:10.155Z,1021.84
2017-07-17T03:52:19.009Z,1021.82
2017-07-17T03:53:27.913Z,1021.87
2017-07-17T03:54:36.767Z,1021.83
2017-07-17T03:55:45.620Z,1021.81
2017-07-17T03:56:54.473Z,1021.87
2017-07-17T03:58:03.327Z,1021.8
2017-07-17T03:59:12.483Z,1021.83
2017-07-17T04:00:21.336Z,1021.78
2017-07-17T04:01:30.188Z,1021.78
2017-07-17T04:02:39.041Z,1021.77
2017-07-17T04:03:47.894Z,1021.76
2017-07-17T04:04:56.797Z,1021.78
2017-07-17T04:06:05.655Z,1021.77
2017-07-17T04:07:14.506Z,1021.79
2017-07-17T04:08:23.362Z,1021.79
2017-07-17T04:09:32.216Z,1021.82
2017-07-17T04:10:41.068Z,1021.82
2017-07-17T04:11:49.922Z,1021.86
2017-07-17T04:12:58.776Z,1021.85
2017-07-17T04:14:07.632Z,1021.85
2017-07-17T04:15:16.485Z,1021.85
2017-07-17T04:16:25.589Z,1021.83
2017-07-17T04:17:34.444Z,1021.84
2017-07-17T04:18:43.300Z,1021.84
2017-07-17T04:19:52.154Z,1021.86
2017-07-17T04:21:01.007Z,1021.86
2017-07-17T04:22:09.910Z,1021.89
2017-07-17T04:23:18.764Z,1021.92
2017-07-17T04:24:27.619Z,1021.92
2017-07-17T04:25:36.474Z,1021.94
2017-07-17T04:26:45.329Z,1021.94
2017-07-17T04:27:54.182Z,1021.88
2017-07-17T04:29:03.034Z,1021.88
2017-07-17T04:30:11.887Z,1021.9
2017-07-17T04:31:20.738Z,1021.88
2017-07-17T04:32:29.593Z,1021.88
2017-07-17T04:33:38.596Z,1021.89
2017-07-17T04:34:47.452Z,1021.89
2017-07-17T04:35:56.317Z,1021.96
2017-07-17T04:37:05.158Z,1021.94
2017-07-17T04:38:14.013Z,1021.93
2017-07-17T04:39:23.017Z,1021.95
2017-07-17T04:40:31.872Z,1021.91
2017-07-17T04:41:40.726Z,1021.94
2017-07-17T04:42:49.579Z,1021.93
2017-07-17T04:43:58.433Z,1021.99
2017-07-17T04:45:07.436Z,1021.98
2017-07-17T04:46:16.290Z,1021.99
2017-07-17T04:47:25.143Z,1022.02
2017-07-17T04:48:33.997Z,1021.98
2017-07-17T04:49:42.852Z,1021.99
2017-07-17T04:50:51.755Z,1022.01
2017-07-17T04:52:00.610Z,1022.03
2017-07-17T04:53:09.466Z,1022.02
2017-07-17T04:54:18.319Z,1021.99
2017-07-17T04:55:27.170Z,1022.03
2017-07-17T04:56:36.122Z,1022.04
2017-07-17T04:57:44.974Z,1022.02
2017-07-17T04:58:53.830Z,1022.03
2017-07-17T05:00:02.683Z,1022.03
2017-07-17T05:01:11.561Z,1022.03
2017-07-17T05:02:20.546Z,1022.02
2017-07-17T05:03:29.401Z,1022.05
2017-07-17T05:04:38.254Z,1022.05
2017-07-17T05:05:47.109Z,1022.09
2017-07-17T05:06:55.961Z,1022.07
2017-07-17T05:08:04.964Z,1022.12
2017-07-17T05:09:13.818Z,1022.11
2017-07-17T05:10:22.674Z,1022.12
2017-07-17T05:11:31.531Z,1022.11
2017-07-17T05:12:40.385Z,1022.12
2017-07-17T05:13:49.437Z,1022.12
2017-07-17T05:14:58.290Z,1022.12
2017-07-17T05:16:07.142Z,1022.15
2017-07-17T05:17:16.339Z,1022.16
2017-07-17T05:18:25.195Z,1022.22
2017-07-17T05:19:34.301Z,1022.25
2017-07-17T05:20:43.154Z,1022.21
2017-07-17T05:21:52.343Z,1022.17
2017-07-17T05:23:01.198Z,1022.19
2017-07-17T05:24:10.052Z,1022.18
2017-07-17T05:25:19.058Z,1022.21
2017-07-17T05:26:27.914Z,1022.19
2017-07-17T05:27:36.768Z,1022.23
2017-07-17T05:28:45.623Z,1022.2
2017-07-17T05:29:54.480Z,1022.22
2017-07-17T05:31:03.486Z,1022.25
2017-07-17T05:32:12.339Z,1022.27
2017-07-17T05:33:21.190Z,1022.23
2017-07-17T05:34:30.045Z,1022.27
2017-07-17T05:35:38.901Z,1022.29
2017-07-17T05:36:48.055Z,1022.32
2017-07-17T05:37:56.910Z,1022.27
2017-07-17T05:39:05.766Z,1022.28
2017-07-17T05:40:14.623Z,1022.29
2017-07-17T05:41:23.473Z,1022.27
2017-07-17T05:42:32.428Z,1022.34
2017-07-17T05:43:41.283Z,1022.35
2017-07-17T05:44:50.139Z,1022.36
2017-07-17T05:45:58.995Z,1022.37
2017-07-17T05:47:07.851Z,1022.34
2017-07-17T05:48:16.707Z,1022.39
2017-07-17T05:49:25.561Z,1022.39
2017-07-17T05:50:34.415Z,1022.44
2017-07-17T05:51:43.269Z,1022.43
2017-07-17T05:52:52.122Z,1022.44
2017-07-17T05:54:00.977Z,1022.46
2017-07-17T05:55:09.831Z,1022.51
2017-07-17T05:56:18.688Z,1022.5
2017-07-17T05:57:27.541Z,1022.5
2017-07-17T05:58:36.399Z,1022.5
2017-07-17T05:59:45.254Z,1022.52
2017-07-17T06:00:54.111Z,1022.56
2017-07-17T06:02:02.967Z,1022.57
2017-07-17T06:03:12.152Z,1022.57
2017-07-17T06:04:21.007Z,1022.56
2017-07-17T06:05:29.860Z,1022.57
2017-07-17T06:06:38.715Z,1022.55
2017-07-17T06:07:47.585Z,1022.55
2017-07-17T06:08:56.449Z,1022.57
2017-07-17T06:10:05.302Z,1022.58
2017-07-17T06:11:14.157Z,1022.6
2017-07-17T06:12:23.011Z,1022.68
2017-07-17T06:13:31.867Z,1022.62
2017-07-17T06:14:40.719Z,1022.68
2017-07-17T06:15:49.573Z,1022.63
2017-07-17T06:16:58.435Z,1022.71
2017-07-17T06:18:07.291Z,1022.66
2017-07-17T06:19:16.146Z,1022.7
2017-07-17T06:20:25.003Z,1022.7
2017-07-17T06:21:33.858Z,1022.69
2017-07-17T06:22:42.714Z,1022.75
2017-07-17T06:23:51.569Z,1022.75
2017-07-17T06:25:00.426Z,1022.77
2017-07-17T06:26:09.277Z,1022.76
2017-07-17T06:27:18.129Z,1022.79
2017-07-17T06:28:26.986Z,1022.8
2017-07-17T06:29:36.178Z,1022.87
2017-07-17T06:30:45.182Z,1022.85
2017-07-17T06:31:54.040Z,1022.89
2017-07-17T06:33:02.896Z,1022.96
2017-07-17T06:34:11.751Z,1022.97
2017-07-17T06:35:20.606Z,1022.98
2017-07-17T06:36:29.509Z,1022.94
2017-07-17T06:37:38.367Z,1022.96
2017-07-17T06:38:47.231Z,1023.01
2017-07-17T06:39:56.086Z,1023
2017-07-17T06:41:05.005Z,1022.97
2017-07-17T06:42:14.120Z,1022.94
2017-07-17T06:43:22.978Z,1022.97
2017-07-17T06:44:31.851Z,1022.94
2017-07-17T06:45:40.707Z,1022.94
2017-07-17T06:46:49.559Z,1022.93
2017-07-17T06:47:58.534Z,1022.98
2017-07-17T06:49:07.390Z,1023.04
2017-07-17T06:50:16.244Z,1023.02
2017-07-17T06:51:25.098Z,1023.04
2017-07-17T06:52:33.955Z,1022.99
2017-07-17T06:53:42.958Z,1023.03
2017-07-17T06:54:51.815Z,1023.05
2017-07-17T06:56:00.670Z,1023.04
2017-07-17T06:57:09.526Z,1023.05
2017-07-17T06:58:18.380Z,1023.01
2017-07-17T06:59:27.234Z,1022.99
2017-07-17T07:00:36.093Z,1023.03
2017-07-17T07:01:44.954Z,1023.03
2017-07-17T07:02:53.813Z,1023.02
2017-07-17T07:04:02.680Z,1023.02
2017-07-17T07:05:11.586Z,1023.03
2017-07-17T07:06:20.437Z,1023.06
2017-07-17T07:07:29.296Z,1023.11
2017-07-17T07:08:38.155Z,1023.13
2017-07-17T07:09:47.013Z,1023.14
2017-07-17T07:10:56.017Z,1023.16
2017-07-17T07:12:04.874Z,1023.1
2017-07-17T07:13:13.735Z,1023.09
2017-07-17T07:14:22.588Z,1023.1
2017-07-17T07:15:31.444Z,1023.15
2017-07-17T07:16:40.303Z,1023.14
2017-07-17T07:17:49.159Z,1023.13
2017-07-17T07:18:58.017Z,1023.13
2017-07-17T07:20:06.876Z,1023.19
2017-07-17T07:21:15.733Z,1023.2
2017-07-17T07:22:24.738Z,1023.23
2017-07-17T07:23:33.599Z,1023.23
2017-07-17T07:24:42.453Z,1023.26
2017-07-17T07:25:51.309Z,1023.24
2017-07-17T07:27:00.166Z,1023.2
2017-07-17T07:28:09.170Z,1023.25
2017-07-17T07:29:18.027Z,1023.29
2017-07-17T07:30:26.893Z,1023.3
2017-07-17T07:31:35.748Z,1023.28
2017-07-17T07:32:44.601Z,1023.3
2017-07-17T07:33:53.808Z,1023.35
2017-07-17T07:35:02.665Z,1023.37
2017-07-17T07:36:11.524Z,1023.38
2017-07-17T07:37:20.381Z,1023.29
2017-07-17T07:38:29.238Z,1023.3
2017-07-17T07:39:38.397Z,1023.32
2017-07-17T07:40:47.255Z,1023.34
2017-07-17T07:41:56.112Z,1023.32
2017-07-17T07:43:05.309Z,1023.33
2017-07-17T07:44:14.163Z,1023.3
2017-07-17T07:45:23.067Z,1023.33
2017-07-17T07:46:31.923Z,1023.34
2017-07-17T07:47:40.780Z,1023.34
2017-07-17T07:48:49.637Z,1023.28
2017-07-17T07:49:58.509Z,1023.28
2017-07-17T07:51:07.599Z,1023.32
2017-07-17T07:52:16.456Z,1023.33
2017-07-17T07:53:25.318Z,1023.3
2017-07-17T07:54:34.189Z,1023.3
2017-07-17T07:55:43.058Z,1023.28
2017-07-17T07:56:52.073Z,1023.28
2017-07-17T07:58:00.940Z,1023.26
2017-07-17T07:59:09.817Z,1023.29
2017-07-17T08:00:18.678Z,1023.29
2017-07-17T08:01:27.537Z,1023.29
2017-07-17T08:02:36.497Z,1023.31
2017-07-17T08:03:45.367Z,1023.34
2017-07-17T08:04:54.229Z,1023.3
2017-07-17T08:06:03.087Z,1023.31
2017-07-17T08:07:11.946Z,1023.29
2017-07-17T08:08:21.007Z,1023.27
2017-07-17T08:09:29.867Z,1023.28
2017-07-17T08:10:38.766Z,1023.32
2017-07-17T08:11:47.624Z,1023.3
2017-07-17T08:12:56.483Z,1023.34
2017-07-17T08:14:05.604Z,1023.31
2017-07-17T08:15:14.470Z,1023.34
2017-07-17T08:16:23.333Z,1023.34
2017-07-17T08:17:32.191Z,1023.33
2017-07-17T08:18:41.155Z,1023.37
2017-07-17T08:19:50.507Z,1023.32
2017-07-17T08:20:59.366Z,1023.32
2017-07-17T08:22:08.238Z,1023.32
2017-07-17T08:23:17.101Z,1023.31
2017-07-17T08:24:25.961Z,1023.34
2017-07-17T08:25:34.971Z,1023.36
2017-07-17T08:26:43.831Z,1023.36
2017-07-17T08:27:52.767Z,1023.39
2017-07-17T08:29:01.648Z,1023.36
2017-07-17T08:30:10.507Z,1023.41
2017-07-17T08:31:19.521Z,1023.4
2017-07-17T08:32:28.379Z,1023.42
2017-07-17T08:33:37.243Z,1023.4
2017-07-17T08:34:46.101Z,1023.38
2017-07-17T08:35:54.962Z,1023.37
2017-07-17T08:37:03.973Z,1023.38
2017-07-17T08:38:12.845Z,1023.35
2017-07-17T08:39:21.717Z,1023.33
2017-07-17T08:40:30.578Z,1023.36
2017-07-17T08:41:39.438Z,1023.36
2017-07-17T08:42:48.596Z,1023.38
2017-07-17T08:43:57.452Z,1023.36
2017-07-17T08:45:06.315Z,1023.34
2017-07-17T08:46:15.173Z,1023.32
2017-07-17T08:47:24.032Z,1023.28
2017-07-17T08:48:33.042Z,1023.28
2017-07-17T08:49:41.900Z,1023.32
2017-07-17T08:50:50.758Z,1023.36
2017-07-17T08:51:59.615Z,1023.24
2017-07-17T08:53:08.476Z,1023.26
2017-07-17T08:54:17.866Z,1023.29
2017-07-17T08:55:26.725Z,1023.27
2017-07-17T08:56:35.583Z,1023.23
2017-07-17T08:57:44.443Z,1023.23
2017-07-17T08:58:53.300Z,1023.22
2017-07-17T09:00:02.306Z,1023.24
2017-07-17T09:01:11.164Z,1023.25
2017-07-17T09:02:20.022Z,1023.26
2017-07-17T09:03:28.883Z,1023.23
2017-07-17T09:04:37.782Z,1023.24
2017-07-17T09:05:46.944Z,1023.25
2017-07-17T09:06:55.804Z,1023.25
2017-07-17T09:08:04.666Z,1023.24
2017-07-17T09:09:13.526Z,1023.23
2017-07-17T09:10:22.396Z,1023.29
2017-07-17T09:11:31.402Z,1023.21
2017-07-17T09:12:40.262Z,1023.24
2017-07-17T09:13:49.124Z,1023.21
2017-07-17T09:14:57.986Z,1023.17
2017-07-17T09:16:06.847Z,1023.17
2017-07-17T09:17:15.858Z,1023.13
2017-07-17T09:18:24.725Z,1023.17
2017-07-17T09:19:33.597Z,1023.18
2017-07-17T09:20:42.456Z,1023.17
2017-07-17T09:21:51.336Z,1023.15
2017-07-17T09:23:00.326Z,1023.17
2017-07-17T09:24:09.180Z,1023.18
2017-07-17T09:25:18.049Z,1023.15
2017-07-17T09:26:26.908Z,1023.17
2017-07-17T09:27:35.790Z,1023.12
2017-07-17T09:28:44.800Z,1023.16
2017-07-17T09:29:53.659Z,1023.14
2017-07-17T09:31:02.620Z,1023.09
2017-07-17T09:32:11.478Z,1023.14
2017-07-17T09:33:20.338Z,1023.07
2017-07-17T09:34:29.547Z,1023.07
2017-07-17T09:35:38.407Z,1023.12
2017-07-17T09:36:47.266Z,1023.14
2017-07-17T09:37:56.144Z,1023.14
2017-07-17T09:39:05.002Z,1023.12
2017-07-17T09:40:13.909Z,1023.1
2017-07-17T09:41:22.774Z,1023.2
2017-07-17T09:42:31.633Z,1023.15
2017-07-17T09:43:40.492Z,1023.19
2017-07-17T09:44:49.349Z,1023.17
2017-07-17T09:45:58.257Z,1023.17
2017-07-17T09:47:07.113Z,1023.2
2017-07-17T09:48:15.977Z,1023.22
2017-07-17T09:49:25.526Z,1023.17
2017-07-17T09:50:34.677Z,1023.22
2017-07-17T09:51:43.939Z,1023.2
2017-07-17T09:52:53.150Z,1023.21
2017-07-17T09:54:02.009Z,1023.19
2017-07-17T09:55:11.233Z,1023.16
2017-07-17T09:56:20.395Z,1023.21
2017-07-17T09:57:29.598Z,1023.19
2017-07-17T09:58:38.679Z,1023.18
2017-07-17T09:59:47.557Z,1023.2
2017-07-17T10:00:56.421Z,1023.22
2017-07-17T10:02:05.283Z,1023.23
2017-07-17T10:03:14.466Z,1023.23
2017-07-17T10:04:23.323Z,1023.18
2017-07-17T10:05:32.188Z,1023.24
2017-07-17T10:06:41.057Z,1023.25
2017-07-17T10:07:49.917Z,1023.25
2017-07-17T10:08:58.920Z,1023.26
2017-07-17T10:10:07.798Z,1023.27
2017-07-17T10:11:16.691Z,1023.21
2017-07-17T10:12:25.551Z,1023.23
2017-07-17T10:13:34.750Z,1023.22
2017-07-17T10:14:43.809Z,1023.16
2017-07-17T10:15:53.028Z,1023.21
2017-07-17T10:17:01.927Z,1023.24
2017-07-17T10:18:10.810Z,1023.25
2017-07-17T10:19:19.697Z,1023.17
2017-07-17T10:20:28.720Z,1023.16
2017-07-17T10:21:37.591Z,1023.19
2017-07-17T10:22:46.451Z,1023.2
2017-07-17T10:23:55.336Z,1023.16
2017-07-17T10:25:04.170Z,1023.18
2017-07-17T10:26:13.032Z,1023.22
2017-07-17T10:27:21.891Z,1023.26
2017-07-17T10:28:30.766Z,1023.3
2017-07-17T10:29:39.627Z,1023.29
2017-07-17T10:30:48.583Z,1023.31
2017-07-17T10:31:57.518Z,1023.31
2017-07-17T10:33:06.384Z,1023.3
2017-07-17T10:34:15.242Z,1023.23
2017-07-17T10:35:24.162Z,1023.22
2017-07-17T10:36:33.027Z,1023.26
2017-07-17T10:37:42.033Z,1023.25
2017-07-17T10:38:50.892Z,1023.24
2017-07-17T10:39:59.753Z,1023.21
2017-07-17T10:41:08.611Z,1023.22
2017-07-17T10:42:17.473Z,1023.23
2017-07-17T10:43:26.632Z,1023.26
2017-07-17T10:44:35.493Z,1023.25
2017-07-17T10:45:44.349Z,1023.29
2017-07-17T10:46:53.208Z,1023.24
2017-07-17T10:48:02.068Z,1023.26
2017-07-17T10:49:10.927Z,1023.27
2017-07-17T10:50:19.784Z,1023.26
2017-07-17T10:51:28.643Z,1023.27
2017-07-17T10:52:37.502Z,1023.28
2017-07-17T10:53:46.361Z,1023.26
2017-07-17T10:54:55.554Z,1023.28
2017-07-17T10:56:04.412Z,1023.26
2017-07-17T10:57:13.272Z,1023.31
2017-07-17T10:58:22.129Z,1023.34
2017-07-17T10:59:30.988Z,1023.34
2017-07-17T11:00:40.148Z,1023.33
2017-07-17T11:01:49.006Z,1023.29
2017-07-17T11:02:58.199Z,1023.25
2017-07-17T11:04:07.055Z,1023.28
2017-07-17T11:05:15.915Z,1023.32
2017-07-17T11:06:24.874Z,1023.26
2017-07-17T11:07:33.733Z,1023.35
2017-07-17T11:08:42.595Z,1023.36
2017-07-17T11:09:51.455Z,1023.33
2017-07-17T11:11:00.311Z,1023.3
2017-07-17T11:12:09.219Z,1023.32
2017-07-17T11:13:18.079Z,1023.32
2017-07-17T11:14:26.940Z,1023.31
2017-07-17T11:15:35.799Z,1023.33
2017-07-17T11:16:44.658Z,1023.3
2017-07-17T11:17:53.668Z,1023.27
2017-07-17T11:19:02.525Z,1023.31
2017-07-17T11:20:11.388Z,1023.29
2017-07-17T11:21:20.244Z,1023.32
2017-07-17T11:22:29.130Z,1023.29
2017-07-17T11:23:38.452Z,1023.27
2017-07-17T11:24:47.309Z,1023.25
2017-07-17T11:25:56.167Z,1023.26
2017-07-17T11:27:05.025Z,1023.29
2017-07-17T11:28:13.882Z,1023.37
2017-07-17T11:29:23.244Z,1023.37
2017-07-17T11:30:32.107Z,1023.36
2017-07-17T11:31:40.969Z,1023.36
2017-07-17T11:32:49.832Z,1023.33
2017-07-17T11:33:58.690Z,1023.3
2017-07-17T11:35:07.754Z,1023.33
2017-07-17T11:36:16.612Z,1023.3
2017-07-17T11:37:25.495Z,1023.28
2017-07-17T11:38:34.362Z,1023.28
2017-07-17T11:39:43.231Z,1023.28
2017-07-17T11:40:52.434Z,1023.3
2017-07-17T11:42:01.293Z,1023.31
2017-07-17T11:43:10.154Z,1023.29
2017-07-17T11:44:19.013Z,1023.28
2017-07-17T11:45:27.909Z,1023.34
2017-07-17T11:56:08.975Z,1023.33
2017-07-17T11:57:18.117Z,1023.32
2017-07-17T11:58:26.815Z,1023.35
2017-07-17T11:59:35.664Z,1023.37
2017-07-17T12:00:44.923Z,1023.41
2017-07-17T12:01:53.777Z,1023.36
2017-07-17T12:04:41.270Z,1023.27
2017-07-17T12:05:50.126Z,1023.29
2017-07-17T12:06:58.987Z,1023.27
2017-07-17T12:08:08.073Z,1023.33
2017-07-17T12:09:17.006Z,1023.36
2017-07-17T12:10:26.314Z,1023.36
2017-07-17T12:11:35.181Z,1023.43
2017-07-17T12:12:44.043Z,1023.36
2017-07-17T12:13:53.096Z,1023.38
2017-07-17T12:15:01.948Z,1023.34
2017-07-17T12:16:10.804Z,1023.38
2017-07-17T12:17:19.996Z,1023.37
2017-07-17T12:18:28.914Z,1023.39
2017-07-17T12:19:37.915Z,1023.38
2017-07-17T12:20:46.768Z,1023.36
2017-07-17T12:21:55.621Z,1023.4
2017-07-17T12:23:04.471Z,1023.43
2017-07-17T12:24:13.319Z,1023.45
2017-07-17T12:25:22.321Z,1023.48
2017-07-17T12:26:31.174Z,1023.41
2017-07-17T12:27:40.029Z,1023.42
2017-07-17T12:28:48.900Z,1023.45
2017-07-17T12:29:58.083Z,1023.37
2017-07-17T12:31:06.987Z,1023.33
2017-07-17T12:32:15.838Z,1023.46
2017-07-17T12:33:24.696Z,1023.35
2017-07-17T12:34:33.549Z,1023.34
2017-07-17T12:35:42.404Z,1023.37
2017-07-17T12:36:51.259Z,1023.31
2017-07-17T12:38:00.111Z,1023.28
2017-07-17T12:39:09.314Z,1023.28
2017-07-17T12:40:18.166Z,1023.37
2017-07-17T12:41:27.018Z,1023.37
2017-07-17T12:42:35.971Z,1023.4
2017-07-17T12:43:44.823Z,1023.41
2017-07-17T12:44:54.015Z,1023.47
2017-07-17T12:46:02.871Z,1023.44
2017-07-17T12:47:11.724Z,1023.47
2017-07-17T12:48:20.629Z,1023.48
2017-07-17T12:49:29.819Z,1023.45
2017-07-17T12:50:38.674Z,1023.47
2017-07-17T12:51:47.534Z,1023.48
2017-07-17T12:52:56.391Z,1023.35
2017-07-17T12:54:05.403Z,1023.36
2017-07-17T12:55:14.259Z,1023.3
2017-07-17T12:56:23.117Z,1023.34
2017-07-17T12:57:31.976Z,1023.38
2017-07-17T12:58:41.166Z,1023.31
2017-07-17T12:59:50.177Z,1023.32
2017-07-17T13:00:59.034Z,1023.32
2017-07-17T13:02:08.220Z,1023.49
2017-07-17T13:03:17.077Z,1023.38
2017-07-17T13:04:25.934Z,1023.29
2017-07-17T13:05:34.969Z,1023.43
2017-07-17T13:06:43.800Z,1023.25
2017-07-17T13:07:52.655Z,1023.33
2017-07-17T13:09:01.513Z,1023.33
2017-07-17T13:10:10.371Z,1023.37
2017-07-17T13:11:19.630Z,1023.33
2017-07-17T13:12:28.487Z,1023.44
2017-07-17T13:13:37.344Z,1023.43
2017-07-17T13:14:46.201Z,1023.46
2017-07-17T13:15:55.058Z,1023.4
2017-07-17T13:17:04.318Z,1023.48
2017-07-17T13:18:13.176Z,1023.44
2017-07-17T13:19:22.035Z,1023.32
2017-07-17T13:20:31.226Z,1023.27
2017-07-17T13:21:40.421Z,1023.3
2017-07-17T13:22:49.480Z,1023.27
2017-07-17T13:23:58.676Z,1023.28
2017-07-17T13:25:07.532Z,1023.33
2017-07-17T13:26:16.389Z,1023.25
2017-07-17T13:27:25.247Z,1023.23
2017-07-17T13:28:34.487Z,1023.24
2017-07-17T13:29:43.342Z,1023.21
2017-07-17T13:30:52.198Z,1023.23
2017-07-17T13:32:01.054Z,1023.24
2017-07-17T13:33:09.910Z,1023.21
2017-07-17T13:34:18.919Z,1023.24
2017-07-17T13:35:27.777Z,1023.26
2017-07-17T13:36:36.632Z,1023.23
2017-07-17T13:37:45.487Z,1023.26
2017-07-17T13:38:54.342Z,1023.26
2017-07-17T13:40:03.199Z,1023.34
2017-07-17T13:41:12.051Z,1023.26
2017-07-17T13:42:20.903Z,1023.28
2017-07-17T13:43:29.756Z,1023.34
2017-07-17T13:44:38.628Z,1023.32
2017-07-17T13:45:47.638Z,1023.27
2017-07-17T13:46:56.496Z,1023.3
2017-07-17T13:48:05.379Z,1023.25
2017-07-17T13:49:14.233Z,1023.3
2017-07-17T13:50:23.429Z,1023.32
2017-07-17T13:51:32.446Z,1023.31
2017-07-17T13:52:41.321Z,1023.25
2017-07-17T13:53:50.184Z,1023.26
2017-07-17T13:55:00.391Z,1023.28
2017-07-17T13:56:10.704Z,1023.27
2017-07-17T13:57:20.308Z,1023.3
2017-07-17T13:58:29.852Z,1023.23
2017-07-17T13:59:39.395Z,1023.25
2017-07-17T14:00:49.264Z,1023.23
2017-07-17T14:01:59.135Z,1023.23
2017-07-17T14:03:09.167Z,1023.24
2017-07-17T14:04:18.064Z,1023.25
2017-07-17T14:05:27.948Z,1023.5
2017-07-17T14:06:37.491Z,1023.22